createdAt,value
2022-11-08T00:00:17.093Z,30.157
2022-11-08T00:05:17.092Z,30.162
2022-11-08T00:10:17.158Z,30.163
2022-11-08T00:15:17.113Z,30.162
2022-11-08T00:20:17.137Z,30.164
2022-11-08T00:25:17.078Z,30.164
2022-11-08T00:30:17.127Z,30.168
2022-11-08T00:35:17.081Z,30.177
2022-11-08T00:40:17.051Z,30.178
2022-11-08T00:45:17.042Z,30.180
2022-11-08T00:50:17.022Z,30.181
2022-11-08T00:55:17.194Z,30.180
2022-11-08T01:00:17.289Z,30.182
2022-11-08T01:05:17.480Z,30.191
2022-11-08T01:10:17.149Z,30.194
2022-11-08T01:15:17.234Z,30.197
2022-11-08T01:20:17.132Z,30.200
2022-11-08T01:25:17.178Z,30.199
2022-11-08T01:30:17.185Z,30.207
2022-11-08T01:35:17.318Z,30.209
2022-11-08T01:40:17.137Z,30.213
2022-11-08T01:45:17.152Z,30.219
2022-11-08T01:50:17.183Z,30.221
2022-11-08T01:55:17.136Z,30.224
2022-11-08T02:00:17.229Z,30.228
2022-11-08T02:05:17.224Z,30.231
2022-11-08T02:10:17.405Z,30.234
2022-11-08T02:15:17.262Z,30.237
2022-11-08T02:20:17.268Z,30.239
2022-11-08T02:25:17.271Z,30.240
2022-11-08T02:30:17.585Z,30.242
2022-11-08T02:35:17.293Z,30.245
2022-11-08T02:40:17.334Z,30.250
2022-11-08T02:45:17.331Z,30.251
2022-11-08T02:50:17.323Z,30.258
2022-11-08T02:55:17.605Z,30.260
2022-11-08T03:00:17.335Z,30.259
2022-11-08T03:05:17.481Z,30.263
2022-11-08T03:10:17.424Z,30.265
2022-11-08T03:15:15.523Z,30.267
2022-11-08T03:20:15.504Z,30.266
2022-11-08T03:25:15.393Z,30.267
2022-11-08T03:30:15.407Z,30.262
2022-11-08T03:35:15.599Z,30.266
2022-11-08T03:40:15.461Z,30.268
2022-11-08T03:45:15.495Z,30.273
2022-11-08T03:50:15.415Z,30.273
2022-11-08T03:55:15.552Z,30.273
2022-11-08T04:00:15.669Z,30.278
2022-11-08T04:05:15.572Z,30.282
2022-11-08T04:10:16.660Z,30.282
2022-11-08T04:15:16.597Z,30.284
2022-11-08T04:20:16.545Z,30.285
2022-11-08T04:25:16.652Z,30.288
2022-11-08T04:30:16.512Z,30.290
2022-11-08T04:35:16.541Z,30.293
2022-11-08T04:40:16.574Z,30.294
2022-11-08T04:45:16.546Z,30.296
2022-11-08T04:50:16.583Z,30.296
2022-11-08T04:55:16.550Z,30.295
2022-11-08T05:00:15.617Z,30.297
2022-11-08T05:05:15.598Z,30.297
2022-11-08T05:10:15.749Z,30.302
2022-11-08T05:15:15.774Z,30.301
2022-11-08T05:20:15.679Z,30.303
2022-11-08T05:25:15.806Z,30.301
2022-11-08T05:30:15.678Z,30.309
2022-11-08T05:35:15.662Z,30.307
2022-11-08T05:40:15.724Z,30.310
2022-11-08T05:45:15.692Z,30.315
2022-11-08T05:50:19.399Z,30.322
2022-11-08T05:55:15.642Z,30.320
2022-11-08T06:00:15.699Z,30.316
2022-11-08T06:05:15.707Z,30.315
2022-11-08T06:10:15.744Z,30.311
2022-11-08T06:15:15.699Z,30.316
2022-11-08T06:20:15.906Z,30.323
2022-11-08T06:25:15.748Z,30.324
2022-11-08T06:30:15.751Z,30.328
2022-11-08T06:35:15.783Z,30.327
2022-11-08T06:40:15.958Z,30.329
2022-11-08T06:45:15.863Z,30.320
2022-11-08T06:50:15.786Z,30.323
2022-11-08T06:55:15.779Z,30.327
2022-11-08T07:00:15.999Z,30.327
2022-11-08T07:05:15.882Z,30.334
2022-11-08T07:10:15.880Z,30.335
2022-11-08T07:15:15.874Z,30.340
2022-11-08T07:20:16.117Z,30.340
2022-11-08T07:25:15.892Z,30.342
2022-11-08T07:30:15.923Z,30.343
2022-11-08T07:35:15.879Z,30.342
2022-11-08T07:40:15.950Z,30.343
2022-11-08T07:45:15.965Z,30.341
2022-11-08T07:50:17.861Z,30.342
2022-11-08T07:55:16.115Z,30.342
2022-11-08T08:00:16.043Z,30.343
2022-11-08T08:05:16.034Z,30.340
2022-11-08T08:10:17.021Z,30.343
2022-11-08T08:15:16.940Z,30.340
2022-11-08T08:20:17.136Z,30.341
2022-11-08T08:25:17.066Z,30.347
2022-11-08T08:30:17.033Z,30.343
2022-11-08T08:35:16.998Z,30.350
2022-11-08T08:40:17.016Z,30.352
2022-11-08T08:45:17.098Z,30.352
2022-11-08T08:50:17.097Z,30.352
2022-11-08T08:55:17.145Z,30.348
2022-11-08T09:01:43.556Z,30.350
2022-11-08T09:05:17.334Z,30.355
2022-11-08T09:10:17.259Z,30.355
2022-11-08T09:15:17.111Z,30.356
2022-11-08T09:20:17.095Z,30.355
2022-11-08T09:25:17.283Z,30.357
2022-11-08T09:30:17.267Z,30.362
2022-11-08T09:35:17.408Z,30.364
2022-11-08T09:40:22.885Z,30.363
2022-11-08T09:45:17.282Z,30.363
2022-11-08T09:50:17.177Z,30.366
2022-11-08T09:55:17.149Z,30.365
2022-11-08T10:00:17.204Z,30.367
2022-11-08T10:05:17.179Z,30.368
2022-11-08T10:10:17.366Z,30.372
2022-11-08T10:15:17.234Z,30.374
2022-11-08T10:20:17.299Z,30.377
2022-11-08T10:25:17.246Z,30.376
2022-11-08T10:30:17.239Z,30.379
2022-11-08T10:35:17.404Z,30.381
2022-11-08T10:40:17.261Z,30.385
2022-11-08T10:45:17.359Z,30.384
2022-11-08T10:50:17.311Z,30.382
2022-11-08T10:55:17.260Z,30.385
2022-11-08T11:00:17.435Z,30.383
2022-11-08T11:05:17.324Z,30.383
2022-11-08T11:10:17.451Z,30.387
2022-11-08T11:15:17.362Z,30.393
2022-11-08T11:20:17.474Z,30.390
2022-11-08T11:25:17.412Z,30.394
2022-11-08T11:30:17.355Z,30.396
2022-11-08T11:35:15.553Z,30.396
2022-11-08T11:40:15.509Z,30.399
2022-11-08T11:45:15.434Z,30.399
2022-11-08T11:50:15.439Z,30.396
2022-11-08T11:55:15.312Z,30.397
2022-11-08T12:00:15.453Z,30.403
2022-11-08T12:05:15.438Z,30.406
2022-11-08T12:10:15.422Z,30.406
2022-11-08T12:15:15.488Z,30.413
2022-11-08T12:20:15.439Z,30.413
2022-11-08T12:25:15.699Z,30.415
2022-11-08T12:30:15.564Z,30.418
2022-11-08T12:35:15.483Z,30.424
2022-11-08T12:40:15.610Z,30.428
2022-11-08T12:45:15.619Z,30.425
2022-11-08T12:50:15.571Z,30.431
2022-11-08T12:55:15.544Z,30.437
2022-11-08T13:00:15.688Z,30.436
2022-11-08T13:05:15.604Z,30.439
2022-11-08T13:10:15.538Z,30.439
2022-11-08T13:15:15.699Z,30.444
2022-11-08T13:20:15.719Z,30.437
2022-11-08T13:25:15.651Z,30.435
2022-11-08T13:30:15.739Z,30.438
2022-11-08T13:35:15.657Z,30.442
2022-11-08T13:40:15.676Z,30.445
2022-11-08T13:45:15.692Z,30.444
2022-11-08T13:50:15.684Z,30.443
2022-11-08T13:55:15.544Z,30.447
2022-11-08T14:00:15.724Z,30.448
2022-11-08T14:05:15.735Z,30.457
2022-11-08T14:10:15.818Z,30.458
2022-11-08T14:15:15.869Z,30.460
2022-11-08T14:20:15.884Z,30.458
2022-11-08T14:25:15.829Z,30.458
2022-11-08T14:30:15.732Z,30.455
2022-11-08T14:35:15.915Z,30.456
2022-11-08T14:40:15.958Z,30.458
2022-11-08T14:45:15.879Z,30.462
2022-11-08T14:50:15.897Z,30.461
2022-11-08T14:55:16.028Z,30.463
2022-11-08T15:00:15.842Z,30.465
2022-11-08T15:05:15.934Z,30.465
2022-11-08T15:10:15.837Z,30.469
2022-11-08T15:15:15.793Z,30.471
2022-11-08T15:20:15.852Z,30.476
2022-11-08T15:25:15.876Z,30.472
2022-11-08T15:30:15.814Z,30.473
2022-11-08T15:35:15.980Z,30.470
2022-11-08T15:40:15.854Z,30.465
2022-11-08T15:45:15.880Z,30.464
2022-11-08T15:50:15.925Z,30.468
2022-11-08T15:55:15.835Z,30.465
2022-11-08T16:00:16.111Z,30.467
2022-11-08T16:05:16.006Z,30.467
2022-11-08T16:10:16.032Z,30.467
2022-11-08T16:15:16.238Z,30.468
2022-11-08T16:20:15.914Z,30.464
2022-11-08T16:25:16.032Z,30.462
2022-11-08T16:30:15.988Z,30.461
2022-11-08T16:35:16.064Z,30.460
2022-11-08T16:40:16.053Z,30.457
2022-11-08T16:45:16.146Z,30.459
2022-11-08T16:50:15.986Z,30.461
2022-11-08T16:55:17.723Z,30.460
2022-11-08T17:00:16.053Z,30.463
2022-11-08T17:05:15.995Z,30.459
2022-11-08T17:10:16.013Z,30.457
2022-11-08T17:15:16.059Z,30.458
2022-11-08T17:20:16.215Z,30.460
2022-11-08T17:25:16.130Z,30.459
2022-11-08T17:30:16.123Z,30.457
2022-11-08T17:35:16.131Z,30.457
2022-11-08T17:40:16.104Z,30.456
2022-11-08T17:45:16.113Z,30.455
2022-11-08T17:50:16.148Z,30.455
2022-11-08T17:55:16.169Z,30.457
2022-11-08T18:00:16.384Z,30.455
2022-11-08T18:05:16.394Z,30.456
2022-11-08T18:10:16.152Z,30.457
2022-11-08T18:15:16.179Z,30.459
2022-11-08T18:20:16.235Z,30.462
2022-11-08T18:25:16.313Z,30.463
2022-11-08T18:30:16.226Z,30.460
2022-11-08T18:35:16.295Z,30.463
2022-11-08T18:40:19.581Z,30.469
2022-11-08T18:45:16.255Z,30.469
2022-11-08T18:50:16.405Z,30.471
2022-11-08T18:55:16.333Z,30.474
2022-11-08T19:00:16.456Z,30.474
2022-11-08T19:05:16.241Z,30.475
2022-11-08T19:10:16.286Z,30.478
2022-11-08T19:15:16.327Z,30.482
2022-11-08T19:20:16.261Z,30.484
2022-11-08T19:25:16.381Z,30.482
2022-11-08T19:30:16.344Z,30.481
2022-11-08T19:35:16.834Z,30.478
2022-11-08T19:40:16.345Z,30.481
2022-11-08T19:45:16.423Z,30.481
2022-11-08T19:50:16.421Z,30.483
2022-11-08T19:55:16.284Z,30.486
2022-11-08T20:00:16.363Z,30.485
2022-11-08T20:05:16.510Z,30.484
2022-11-08T20:10:16.392Z,30.486
2022-11-08T20:15:16.447Z,30.493
2022-11-08T20:20:16.442Z,30.492
2022-11-08T20:25:16.440Z,30.496
2022-11-08T20:30:16.548Z,30.498
2022-11-08T20:35:19.144Z,30.497
2022-11-08T20:40:16.640Z,30.500
2022-11-08T20:45:16.551Z,30.500
2022-11-08T20:50:16.657Z,30.504
2022-11-08T20:55:16.652Z,30.506
2022-11-08T21:00:24.056Z,30.508
2022-11-08T21:05:16.522Z,30.509
2022-11-08T21:10:40.969Z,30.509
2022-11-08T21:15:16.821Z,30.511
2022-11-08T21:20:16.616Z,30.509
2022-11-08T21:25:16.596Z,30.517
2022-11-08T21:30:16.626Z,30.514
2022-11-08T21:35:16.644Z,30.510
2022-11-08T21:40:16.552Z,30.514
2022-11-08T21:45:16.636Z,30.518
2022-11-08T21:50:16.720Z,30.522
2022-11-08T21:55:16.682Z,30.523
2022-11-08T22:00:16.596Z,30.520
2022-11-08T22:05:16.660Z,30.522
2022-11-08T22:10:16.677Z,30.532
2022-11-08T22:15:16.812Z,30.536
2022-11-08T22:20:16.672Z,30.536
2022-11-08T22:25:16.854Z,30.539
2022-11-08T22:30:17.054Z,30.543
2022-11-08T22:35:16.919Z,30.545
2022-11-08T22:40:16.677Z,30.548
2022-11-08T22:45:16.788Z,30.548
2022-11-08T22:50:16.793Z,30.541
2022-11-08T22:55:16.729Z,30.551
2022-11-08T23:00:16.764Z,30.551
2022-11-08T23:05:16.713Z,30.553
2022-11-08T23:10:16.844Z,30.557
2022-11-08T23:15:16.832Z,30.558
2022-11-08T23:20:16.920Z,30.558
2022-11-08T23:25:16.932Z,30.559
2022-11-08T23:30:16.773Z,30.558
2022-11-08T23:35:16.850Z,30.562
2022-11-08T23:40:16.932Z,30.561
2022-11-08T23:45:16.864Z,30.559
2022-11-08T23:50:16.821Z,30.563
2022-11-08T23:55:16.851Z,30.565
